createdAt,value
2023-03-07T00:00:45.220Z,84.99
2023-03-07T00:01:45.272Z,84.99
2023-03-07T00:02:45.339Z,84.99
2023-03-07T00:03:45.202Z,85.10
2023-03-07T00:04:45.175Z,85.10
2023-03-07T00:05:45.150Z,84.99
2023-03-07T00:06:45.159Z,84.99
2023-03-07T00:07:45.139Z,84.89
2023-03-07T00:08:45.116Z,84.89
2023-03-07T00:09:45.140Z,84.89
2023-03-07T00:10:45.100Z,84.89
2023-03-07T00:11:45.081Z,84.78
2023-03-07T00:12:45.118Z,84.78
2023-03-07T00:13:45.056Z,84.78
2023-03-07T00:14:45.051Z,84.78
2023-03-07T00:15:45.114Z,84.78
2023-03-07T00:16:45.063Z,84.68
2023-03-07T00:17:45.019Z,84.68
2023-03-07T00:18:45.086Z,84.64
2023-03-07T00:19:45.004Z,84.58
2023-03-07T00:20:45.036Z,84.68
2023-03-07T00:21:44.982Z,84.68
2023-03-07T00:22:44.948Z,84.78
2023-03-07T00:23:44.952Z,84.99
2023-03-07T00:24:44.926Z,85.10
2023-03-07T00:25:44.976Z,85.20
2023-03-07T00:26:44.940Z,85.30
2023-03-07T00:27:44.892Z,85.30
2023-03-07T00:28:44.870Z,85.41
2023-03-07T00:29:44.839Z,85.51
2023-03-07T00:30:44.844Z,85.51
2023-03-07T00:31:45.084Z,85.51
2023-03-07T00:32:44.824Z,85.41
2023-03-07T00:33:44.791Z,85.41
2023-03-07T00:34:44.856Z,85.51
2023-03-07T00:35:44.799Z,85.51
2023-03-07T00:36:44.767Z,85.61
2023-03-07T00:37:44.844Z,85.72
2023-03-07T00:38:44.726Z,85.93
2023-03-07T00:39:44.704Z,86.03
2023-03-07T00:40:44.704Z,86.03
2023-03-07T00:41:44.693Z,86.03
2023-03-07T00:42:44.687Z,86.13
2023-03-07T00:43:44.665Z,86.13
2023-03-07T00:44:44.665Z,86.07
2023-03-07T00:45:44.655Z,86.17
2023-03-07T00:46:44.619Z,86.38
2023-03-07T00:47:44.636Z,86.49
2023-03-07T00:48:44.603Z,86.59
2023-03-07T00:49:44.603Z,86.69
2023-03-07T00:50:44.563Z,86.69
2023-03-07T00:51:44.568Z,86.80
2023-03-07T00:52:44.577Z,86.80
2023-03-07T00:53:44.561Z,86.90
2023-03-07T00:54:44.543Z,86.90
2023-03-07T00:55:44.557Z,87.01
2023-03-07T00:56:44.506Z,87.01
2023-03-07T00:57:44.487Z,86.80
2023-03-07T00:58:44.498Z,86.80
2023-03-07T00:59:44.457Z,86.76
2023-03-07T01:00:44.483Z,86.65
2023-03-07T01:01:44.435Z,86.76
2023-03-07T01:02:44.423Z,86.76
2023-03-07T01:03:44.410Z,86.80
2023-03-07T01:04:44.397Z,86.86
2023-03-07T01:05:44.376Z,87.01
2023-03-07T01:06:44.368Z,87.07
2023-03-07T01:07:44.377Z,87.32
2023-03-07T01:08:44.368Z,87.32
2023-03-07T01:09:44.329Z,87.27
2023-03-07T01:10:44.336Z,87.17
2023-03-07T01:11:44.310Z,87.17
2023-03-07T01:12:44.304Z,87.11
2023-03-07T01:13:44.318Z,86.96
2023-03-07T01:14:44.266Z,86.96
2023-03-07T01:15:44.257Z,87.11
2023-03-07T01:16:44.296Z,87.32
2023-03-07T01:17:44.236Z,87.63
2023-03-07T01:18:44.246Z,87.73
2023-03-07T01:19:44.207Z,87.94
2023-03-07T01:20:44.202Z,88.15
2023-03-07T01:21:44.219Z,88.25
2023-03-07T01:22:44.181Z,88.25
2023-03-07T01:23:44.178Z,88.46
2023-03-07T01:24:44.147Z,88.46
2023-03-07T01:25:44.140Z,88.46
2023-03-07T01:26:44.125Z,88.46
2023-03-07T01:27:44.103Z,88.46
2023-03-07T01:28:44.091Z,88.56
2023-03-07T01:29:44.095Z,88.56
2023-03-07T01:30:44.076Z,88.56
2023-03-07T01:31:44.135Z,88.56
2023-03-07T01:32:44.102Z,88.56
2023-03-07T01:33:44.027Z,88.56
2023-03-07T01:34:44.026Z,88.67
2023-03-07T01:35:44.068Z,88.92
2023-03-07T01:36:44.051Z,88.92
2023-03-07T01:37:43.970Z,89.02
2023-03-07T01:38:43.970Z,89.12
2023-03-07T01:39:43.966Z,89.23
2023-03-07T01:40:43.951Z,89.23
2023-03-07T01:41:43.915Z,89.43
2023-03-07T01:42:43.906Z,89.43
2023-03-07T01:43:43.915Z,89.43
2023-03-07T01:44:43.925Z,89.39
2023-03-07T01:45:43.912Z,89.33
2023-03-07T01:46:43.867Z,89.29
2023-03-07T01:47:43.848Z,89.29
2023-03-07T01:48:43.844Z,89.18
2023-03-07T01:49:43.875Z,89.39
2023-03-07T01:50:43.815Z,89.60
2023-03-07T01:51:43.803Z,89.70
2023-03-07T01:52:43.777Z,89.92
2023-03-07T01:53:43.763Z,90.02
2023-03-07T01:54:43.782Z,90.02
2023-03-07T01:55:43.743Z,90.02
2023-03-07T01:56:43.740Z,90.02
2023-03-07T01:57:43.719Z,90.16
2023-03-07T01:58:43.710Z,90.37
2023-03-07T01:59:43.713Z,90.47
2023-03-07T02:00:43.682Z,90.69
2023-03-07T02:01:43.684Z,90.89
2023-03-07T02:02:43.666Z,91.00
2023-03-07T02:03:43.640Z,91.00
2023-03-07T02:04:43.650Z,90.95
2023-03-07T02:05:43.637Z,91.00
2023-03-07T02:06:43.610Z,90.95
2023-03-07T02:07:43.579Z,90.85
2023-03-07T02:08:43.581Z,90.85
2023-03-07T02:09:43.585Z,90.85
2023-03-07T02:10:43.562Z,90.95
2023-03-07T02:11:43.568Z,91.16
2023-03-07T02:12:43.529Z,91.27
2023-03-07T02:15:03.210Z,91.37
2023-03-07T02:15:54.085Z,91.37
2023-03-07T02:16:54.038Z,91.27
2023-03-07T02:17:54.032Z,91.27
2023-03-07T02:18:54.011Z,91.37
2023-03-07T02:19:54.011Z,91.37
2023-03-07T02:20:53.981Z,91.58
2023-03-07T02:21:53.982Z,91.58
2023-03-07T02:22:53.957Z,91.58
2023-03-07T02:23:53.963Z,91.68
2023-03-07T02:24:53.958Z,91.78
2023-03-07T02:25:53.920Z,91.78
2023-03-07T02:26:53.902Z,91.78
2023-03-07T02:27:53.898Z,91.78
2023-03-07T02:28:53.882Z,91.89
2023-03-07T02:29:53.891Z,91.99
2023-03-07T02:30:53.869Z,92.20
2023-03-07T02:31:53.858Z,92.20
2023-03-07T02:32:53.831Z,92.30
2023-03-07T02:33:53.827Z,92.30
2023-03-07T02:34:53.838Z,92.20
2023-03-07T02:35:53.820Z,92.10
2023-03-07T02:36:53.786Z,91.99
2023-03-07T02:37:53.801Z,91.74
2023-03-07T02:38:53.766Z,91.43
2023-03-07T02:39:53.776Z,91.12
2023-03-07T02:40:53.744Z,90.81
2023-03-07T02:41:53.733Z,90.60
2023-03-07T02:42:53.706Z,90.25
2023-03-07T02:43:53.716Z,89.94
2023-03-07T02:44:53.696Z,89.52
2023-03-07T02:45:53.700Z,89.31
2023-03-07T02:46:53.665Z,89.11
2023-03-07T02:47:53.656Z,88.85
2023-03-07T02:48:53.633Z,88.54
2023-03-07T02:49:53.658Z,88.23
2023-03-07T02:50:53.617Z,87.92
2023-03-07T02:51:53.593Z,87.71
2023-03-07T02:52:53.586Z,87.61
2023-03-07T02:53:53.586Z,87.30
2023-03-07T02:54:53.575Z,87.09
2023-03-07T02:55:53.546Z,87.19
2023-03-07T02:56:53.530Z,87.09
2023-03-07T02:57:53.529Z,87.19
2023-03-07T02:58:53.507Z,87.30
2023-03-07T02:59:53.515Z,87.40
2023-03-07T03:00:53.473Z,87.51
2023-03-07T03:01:53.498Z,87.61
2023-03-07T03:02:53.457Z,87.61
2023-03-07T03:03:53.448Z,87.61
2023-03-07T03:04:53.523Z,87.47
2023-03-07T03:05:53.448Z,87.30
2023-03-07T03:06:53.436Z,87.16
2023-03-07T03:07:53.393Z,87.16
2023-03-07T03:08:53.372Z,87.16
2023-03-07T03:09:53.370Z,86.95
2023-03-07T03:10:53.369Z,86.95
2023-03-07T03:11:53.350Z,87.05
2023-03-07T03:12:53.349Z,87.26
2023-03-07T03:13:53.328Z,87.26
2023-03-07T03:14:53.299Z,87.16
2023-03-07T03:15:53.325Z,86.95
2023-03-07T03:16:53.271Z,87.16
2023-03-07T03:17:53.269Z,86.95
2023-03-07T03:18:53.244Z,86.74
2023-03-07T03:19:53.240Z,86.74
2023-03-07T03:20:53.242Z,86.74
2023-03-07T03:21:53.220Z,86.74
2023-03-07T03:22:53.207Z,86.95
2023-03-07T03:23:53.193Z,86.95
2023-03-07T03:24:53.168Z,86.54
2023-03-07T03:25:53.201Z,86.22
2023-03-07T03:26:53.150Z,86.33
2023-03-07T03:27:53.139Z,86.22
2023-03-07T03:28:53.117Z,86.22
2023-03-07T03:29:53.095Z,86.33
2023-03-07T03:30:53.109Z,86.33
2023-03-07T03:31:53.088Z,86.29
2023-03-07T03:32:53.071Z,86.39
2023-03-07T03:33:53.063Z,86.18
2023-03-07T03:34:53.043Z,86.18
2023-03-07T03:35:53.089Z,86.18
2023-03-07T03:36:53.018Z,86.39
2023-03-07T03:37:53.016Z,86.60
2023-03-07T03:38:52.987Z,86.85
2023-03-07T03:39:52.979Z,87.26
2023-03-07T03:40:52.975Z,87.16
2023-03-07T03:41:52.951Z,87.16
2023-03-07T03:42:52.953Z,87.01
2023-03-07T03:43:52.941Z,86.95
2023-03-07T03:44:52.908Z,86.95
2023-03-07T03:45:52.923Z,86.95
2023-03-07T03:46:52.925Z,86.95
2023-03-07T03:47:52.890Z,87.47
2023-03-07T03:48:52.863Z,87.37
2023-03-07T03:49:52.848Z,87.37
2023-03-07T03:50:52.846Z,87.47
2023-03-07T03:51:52.835Z,87.47
2023-03-07T03:52:52.823Z,87.37
2023-03-07T03:53:52.802Z,87.16
2023-03-07T03:54:52.776Z,87.05
2023-03-07T03:55:52.790Z,87.05
2023-03-07T03:56:52.755Z,86.95
2023-03-07T03:57:52.747Z,86.85
2023-03-07T03:58:52.734Z,86.64
2023-03-07T03:59:52.718Z,86.70
2023-03-07T04:00:52.715Z,85.66
2023-03-07T04:01:52.878Z,85.46
2023-03-07T04:02:52.798Z,85.56
2023-03-07T04:03:52.668Z,85.66
2023-03-07T04:04:52.646Z,85.87
2023-03-07T04:05:52.637Z,85.97
2023-03-07T04:06:52.646Z,85.87
2023-03-07T04:07:52.620Z,85.77
2023-03-07T04:08:52.588Z,85.66
2023-03-07T04:09:52.585Z,85.56
2023-03-07T04:10:52.584Z,85.46
2023-03-07T04:11:52.565Z,85.35
2023-03-07T04:12:52.555Z,85.66
2023-03-07T04:13:52.534Z,85.77
2023-03-07T04:14:52.523Z,85.77
2023-03-07T04:15:52.503Z,85.46
2023-03-07T04:16:52.537Z,85.04
2023-03-07T04:17:52.482Z,85.00
2023-03-07T04:18:52.473Z,84.90
2023-03-07T04:19:52.457Z,84.90
2023-03-07T04:20:52.451Z,84.69
2023-03-07T04:21:52.457Z,85.00
2023-03-07T04:22:52.423Z,84.90
2023-03-07T04:23:52.413Z,84.83
2023-03-07T04:24:52.387Z,84.94
2023-03-07T04:25:52.419Z,84.90
2023-03-07T04:26:52.384Z,84.90
2023-03-07T04:27:52.356Z,84.90
2023-03-07T04:28:52.330Z,85.25
2023-03-07T04:29:52.322Z,85.56
2023-03-07T04:30:52.293Z,85.66
2023-03-07T04:31:52.329Z,85.66
2023-03-07T04:32:52.291Z,85.66
2023-03-07T04:33:52.276Z,85.42
2023-03-07T04:34:52.251Z,85.21
2023-03-07T04:35:52.273Z,85.21
2023-03-07T04:36:52.250Z,84.69
2023-03-07T04:37:52.221Z,84.80
2023-03-07T04:38:52.205Z,84.90
2023-03-07T04:39:52.193Z,84.90
2023-03-07T04:40:52.181Z,84.90
2023-03-07T04:41:52.192Z,85.00
2023-03-07T04:42:52.158Z,84.28
2023-03-07T04:43:52.151Z,84.28
2023-03-07T04:44:52.129Z,84.80
2023-03-07T04:45:52.119Z,85.11
2023-03-07T04:46:52.130Z,85.21
2023-03-07T04:47:52.080Z,85.14
2023-03-07T04:48:52.082Z,85.04
2023-03-07T04:49:52.061Z,85.04
2023-03-07T04:50:52.049Z,85.04
2023-03-07T04:51:52.052Z,85.04
2023-03-07T04:52:52.031Z,85.04
2023-03-07T04:53:52.022Z,84.94
2023-03-07T04:54:51.995Z,84.80
2023-03-07T04:55:51.981Z,84.80
2023-03-07T04:56:51.980Z,84.80
2023-03-07T04:57:51.990Z,84.48
2023-03-07T04:58:51.941Z,84.38
2023-03-07T04:59:51.931Z,84.38
2023-03-07T05:00:51.921Z,84.38
2023-03-07T05:01:51.923Z,84.48
2023-03-07T05:02:51.901Z,84.48
2023-03-07T05:03:51.888Z,84.48
2023-03-07T05:04:51.863Z,84.48
2023-03-07T05:05:51.858Z,84.48
2023-03-07T05:06:51.851Z,84.59
2023-03-07T05:07:51.831Z,84.69
2023-03-07T05:08:59.133Z,84.21
2023-03-07T05:09:51.808Z,84.31
2023-03-07T05:10:51.798Z,84.11
2023-03-07T05:11:53.601Z,84.31
2023-03-07T05:12:51.774Z,84.38
2023-03-07T05:13:51.768Z,84.38
2023-03-07T05:14:51.743Z,84.28
2023-03-07T05:15:51.790Z,84.28
2023-03-07T05:16:51.732Z,84.28
2023-03-07T05:17:51.695Z,84.28
2023-03-07T05:18:51.688Z,83.97
2023-03-07T05:19:51.672Z,84.28
2023-03-07T05:20:51.718Z,84.80
2023-03-07T05:21:51.661Z,84.42
2023-03-07T05:22:51.643Z,84.28
2023-03-07T05:23:51.624Z,84.38
2023-03-07T05:24:51.605Z,84.38
2023-03-07T05:25:51.600Z,84.28
2023-03-07T05:26:51.602Z,84.17
2023-03-07T05:27:51.582Z,84.17
2023-03-07T05:28:51.582Z,83.97
2023-03-07T05:29:51.548Z,83.86
2023-03-07T05:30:51.581Z,83.65
2023-03-07T05:31:51.532Z,83.55
2023-03-07T05:32:51.522Z,83.45
2023-03-07T05:33:51.494Z,83.55
2023-03-07T05:34:51.485Z,83.55
2023-03-07T05:35:51.475Z,83.45
2023-03-07T05:36:51.458Z,83.45
2023-03-07T05:37:51.451Z,83.55
2023-03-07T05:38:51.432Z,83.55
2023-03-07T05:39:51.412Z,83.55
2023-03-07T05:40:51.410Z,83.34
2023-03-07T05:41:51.391Z,83.45
2023-03-07T05:42:51.416Z,83.45
2023-03-07T05:43:51.351Z,83.65
2023-03-07T05:44:51.347Z,83.65
2023-03-07T05:45:51.423Z,83.65
2023-03-07T05:46:51.328Z,83.65
2023-03-07T05:47:51.324Z,83.76
2023-03-07T05:48:51.293Z,83.76
2023-03-07T05:49:51.285Z,83.86
2023-03-07T05:50:51.273Z,83.65
2023-03-07T05:51:51.253Z,83.41
2023-03-07T05:52:51.274Z,83.45
2023-03-07T05:53:51.259Z,83.45
2023-03-07T05:54:51.493Z,83.45
2023-03-07T05:55:51.206Z,83.14
2023-03-07T05:56:51.195Z,82.93
2023-03-07T05:57:51.195Z,82.93
2023-03-07T05:58:51.174Z,91.86
2023-03-07T05:59:51.155Z,96.95
2023-03-07T06:00:51.136Z,97.49
2023-03-07T06:01:51.127Z,97.33
2023-03-07T06:02:51.208Z,96.61
2023-03-07T06:03:51.132Z,97.72
2023-03-07T06:04:51.090Z,96.84
2023-03-07T06:05:51.193Z,95.00
2023-03-07T06:06:51.077Z,93.83
2023-03-07T06:07:51.063Z,91.78
2023-03-07T06:08:51.032Z,89.07
2023-03-07T06:09:51.013Z,87.69
2023-03-07T06:10:51.011Z,83.48
2023-03-07T06:11:51.000Z,81.73
2023-03-07T06:12:51.021Z,72.72
2023-03-07T06:13:50.984Z,71.00
2023-03-07T06:14:50.952Z,71.69
2023-03-07T06:15:51.049Z,72.54
2023-03-07T06:16:50.922Z,72.50
2023-03-07T06:17:50.926Z,72.95
2023-03-07T06:18:50.915Z,74.33
2023-03-07T06:19:50.883Z,74.46
2023-03-07T06:20:50.886Z,75.22
2023-03-07T06:21:50.867Z,75.98
2023-03-07T06:22:50.864Z,76.70
2023-03-07T06:23:50.822Z,77.15
2023-03-07T06:24:50.813Z,77.47
2023-03-07T06:25:50.802Z,77.91
2023-03-07T06:26:50.784Z,78.12
2023-03-07T06:27:50.794Z,78.64
2023-03-07T06:28:50.787Z,79.50
2023-03-07T06:29:50.744Z,80.12
2023-03-07T06:30:50.879Z,80.47
2023-03-07T06:31:50.723Z,80.78
2023-03-07T06:32:50.732Z,81.09
2023-03-07T06:33:50.682Z,80.99
2023-03-07T06:34:50.705Z,80.99
2023-03-07T06:35:50.681Z,80.78
2023-03-07T06:36:50.677Z,80.71
2023-03-07T06:37:50.661Z,81.02
2023-03-07T06:38:50.723Z,81.34
2023-03-07T06:39:50.623Z,82.06
2023-03-07T06:40:50.603Z,81.85
2023-03-07T06:41:50.592Z,81.02
2023-03-07T06:42:50.602Z,81.48
2023-03-07T06:43:50.563Z,81.79
2023-03-07T06:44:50.955Z,81.89
2023-03-07T06:45:50.564Z,81.37
2023-03-07T06:46:50.535Z,81.37
2023-03-07T06:47:50.559Z,81.16
2023-03-07T06:48:50.503Z,81.16
2023-03-07T06:49:50.486Z,81.13
2023-03-07T06:50:50.474Z,81.44
2023-03-07T06:51:50.462Z,81.02
2023-03-07T06:52:50.463Z,80.61
2023-03-07T06:53:50.432Z,80.82
2023-03-07T06:54:50.432Z,80.71
2023-03-07T06:55:50.405Z,80.51
2023-03-07T06:56:50.404Z,80.82
2023-03-07T06:57:50.395Z,80.09
2023-03-07T06:58:50.378Z,79.88
2023-03-07T06:59:50.344Z,80.09
2023-03-07T07:00:50.343Z,80.40
2023-03-07T07:01:50.439Z,80.19
2023-03-07T07:02:50.442Z,79.88
2023-03-07T07:03:50.295Z,79.27
2023-03-07T07:04:50.282Z,79.06
2023-03-07T07:05:50.240Z,79.37
2023-03-07T07:06:50.253Z,79.68
2023-03-07T07:07:50.255Z,79.99
2023-03-07T07:08:50.238Z,80.40
2023-03-07T07:09:50.211Z,80.19
2023-03-07T07:10:50.215Z,80.19
2023-03-07T07:11:50.195Z,80.19
2023-03-07T07:12:50.192Z,80.09
2023-03-07T07:13:50.162Z,80.19
2023-03-07T07:14:50.152Z,79.88
2023-03-07T07:15:50.131Z,79.78
2023-03-07T07:16:50.197Z,79.58
2023-03-07T07:17:50.121Z,79.44
2023-03-07T07:18:50.103Z,79.44
2023-03-07T07:19:50.082Z,78.61
2023-03-07T07:20:50.071Z,78.61
2023-03-07T07:21:50.051Z,78.61
2023-03-07T07:22:50.060Z,78.61
2023-03-07T07:23:50.036Z,78.40
2023-03-07T07:24:50.049Z,78.30
2023-03-07T07:25:50.004Z,78.09
2023-03-07T07:26:50.001Z,78.30
2023-03-07T07:27:50.003Z,78.19
2023-03-07T07:28:49.964Z,77.78
2023-03-07T07:29:49.961Z,77.88
2023-03-07T07:30:49.962Z,77.57
2023-03-07T07:31:50.172Z,77.36
2023-03-07T07:32:50.050Z,77.78
2023-03-07T07:33:49.909Z,77.78
2023-03-07T07:34:49.985Z,77.88
2023-03-07T07:35:49.910Z,78.30
2023-03-07T07:36:49.883Z,78.81
2023-03-07T07:37:49.871Z,78.81
2023-03-07T07:38:49.841Z,78.19
2023-03-07T07:39:49.852Z,78.50
2023-03-07T07:40:49.840Z,78.92
2023-03-07T07:41:49.807Z,79.13
2023-03-07T07:42:49.822Z,80.16
2023-03-07T07:43:49.773Z,79.44
2023-03-07T07:44:49.785Z,77.88
2023-03-07T07:45:49.785Z,77.36
2023-03-07T07:46:49.734Z,77.57
2023-03-07T07:47:49.775Z,77.67
2023-03-07T07:48:49.726Z,77.98
2023-03-07T07:49:49.696Z,77.78
2023-03-07T07:50:49.696Z,77.67
2023-03-07T07:51:49.676Z,76.84
2023-03-07T07:52:49.675Z,76.81
2023-03-07T07:53:49.657Z,77.43
2023-03-07T07:54:49.647Z,77.12
2023-03-07T07:55:49.628Z,76.81
2023-03-07T07:56:49.613Z,76.61
2023-03-07T07:57:49.607Z,77.33
2023-03-07T07:58:49.607Z,76.32
2023-03-07T07:59:49.571Z,76.12
2023-03-07T08:00:49.569Z,76.23
2023-03-07T08:01:49.536Z,76.32
2023-03-07T08:02:49.560Z,76.61
2023-03-07T08:03:49.571Z,77.01
2023-03-07T08:04:49.511Z,76.91
2023-03-07T08:05:49.509Z,77.33
2023-03-07T08:06:49.480Z,76.91
2023-03-07T08:07:49.477Z,76.40
2023-03-07T08:08:49.448Z,76.91
2023-03-07T08:09:49.446Z,77.01
2023-03-07T08:10:49.457Z,76.50
2023-03-07T08:11:49.421Z,76.71
2023-03-07T08:12:49.431Z,75.36
2023-03-07T08:13:49.387Z,75.88
2023-03-07T08:14:49.385Z,75.57
2023-03-07T08:15:49.406Z,75.57
2023-03-07T08:16:49.360Z,75.88
2023-03-07T08:17:49.337Z,75.67
2023-03-07T08:18:49.390Z,75.88
2023-03-07T08:19:49.318Z,76.81
2023-03-07T08:20:49.317Z,77.01
2023-03-07T08:21:49.279Z,75.78
2023-03-07T08:22:49.289Z,75.26
2023-03-07T08:23:49.290Z,75.57
2023-03-07T08:24:49.264Z,76.09
2023-03-07T08:25:49.232Z,75.36
2023-03-07T08:26:49.226Z,74.63
2023-03-07T08:27:49.215Z,75.26
2023-03-07T08:28:49.221Z,75.67
2023-03-07T08:29:49.187Z,75.67
2023-03-07T08:30:49.219Z,75.88
2023-03-07T08:31:49.156Z,75.46
2023-03-07T08:32:49.167Z,75.26
2023-03-07T08:33:49.142Z,75.43
2023-03-07T08:34:49.149Z,75.53
2023-03-07T08:35:49.163Z,75.53
2023-03-07T08:36:49.115Z,75.32
2023-03-07T08:37:49.086Z,74.60
2023-03-07T08:38:49.090Z,74.91
2023-03-07T08:39:49.058Z,74.71
2023-03-07T08:40:49.064Z,74.91
2023-03-07T08:41:49.024Z,74.50
2023-03-07T08:42:49.020Z,74.60
2023-03-07T08:43:49.016Z,75.32
2023-03-07T08:44:49.000Z,75.32
2023-03-07T08:45:48.970Z,75.32
2023-03-07T08:46:48.967Z,74.81
2023-03-07T08:47:48.947Z,75.12
2023-03-07T08:48:48.955Z,75.32
2023-03-07T08:49:48.943Z,75.60
2023-03-07T08:50:48.915Z,74.50
2023-03-07T08:51:48.913Z,74.60
2023-03-07T08:52:48.885Z,74.91
2023-03-07T08:53:48.892Z,74.81
2023-03-07T08:54:48.881Z,74.08
2023-03-07T08:55:48.830Z,74.15
2023-03-07T08:56:48.821Z,73.74
2023-03-07T08:57:48.816Z,73.54
2023-03-07T08:58:48.820Z,73.94
2023-03-07T08:59:48.792Z,74.15
2023-03-07T09:00:48.770Z,73.25
2023-03-07T09:01:48.779Z,74.26
2023-03-07T09:02:48.749Z,74.36
2023-03-07T09:03:48.761Z,74.26
2023-03-07T09:04:48.794Z,74.36
2023-03-07T09:05:48.791Z,74.57
2023-03-07T09:06:48.703Z,75.19
2023-03-07T09:07:48.680Z,74.77
2023-03-07T09:08:48.717Z,74.46
2023-03-07T09:09:48.639Z,75.60
2023-03-07T09:10:48.682Z,75.70
2023-03-07T09:11:48.609Z,74.67
2023-03-07T09:12:48.610Z,74.67
2023-03-07T09:13:52.281Z,73.74
2023-03-07T09:14:48.580Z,74.67
2023-03-07T09:15:48.573Z,73.94
2023-03-07T09:16:48.562Z,73.64
2023-03-07T09:17:48.538Z,73.64
2023-03-07T09:18:48.550Z,74.15
2023-03-07T09:19:48.492Z,73.54
2023-03-07T09:20:48.502Z,73.60
2023-03-07T09:21:48.490Z,74.36
2023-03-07T09:22:48.480Z,73.74
2023-03-07T09:23:48.481Z,73.33
2023-03-07T09:24:48.468Z,74.05
2023-03-07T09:25:48.455Z,74.98
2023-03-07T09:26:48.422Z,74.67
2023-03-07T09:27:49.930Z,73.74
2023-03-07T09:28:48.418Z,73.22
2023-03-07T09:29:48.382Z,73.33
2023-03-07T09:30:48.385Z,73.84
2023-03-07T09:31:48.419Z,74.67
2023-03-07T09:32:48.352Z,73.84
2023-03-07T09:33:48.362Z,72.50
2023-03-07T09:34:48.338Z,73.12
2023-03-07T09:35:48.375Z,72.91
2023-03-07T09:36:48.292Z,73.33
2023-03-07T09:37:48.273Z,73.22
2023-03-07T09:38:48.283Z,73.22
2023-03-07T09:39:48.254Z,72.71
2023-03-07T09:40:48.327Z,72.57
2023-03-07T09:41:48.230Z,72.88
2023-03-07T09:42:48.239Z,73.08
2023-03-07T09:43:48.236Z,73.02
2023-03-07T09:44:48.232Z,72.98
2023-03-07T09:45:48.225Z,72.71
2023-03-07T09:46:48.176Z,72.78
2023-03-07T09:47:48.184Z,72.78
2023-03-07T09:48:48.164Z,73.08
2023-03-07T09:49:48.165Z,73.12
2023-03-07T09:50:48.132Z,73.74
2023-03-07T09:51:48.104Z,73.22
2023-03-07T09:52:48.071Z,72.60
2023-03-07T09:53:48.083Z,73.54
2023-03-07T09:54:48.041Z,74.05
2023-03-07T09:55:48.036Z,73.64
2023-03-07T09:56:48.013Z,73.19
2023-03-07T09:57:48.014Z,73.39
2023-03-07T09:58:48.004Z,74.33
2023-03-07T09:59:47.985Z,74.43
2023-03-07T10:00:47.974Z,73.08
2023-03-07T10:01:47.956Z,72.67
2023-03-07T10:02:47.936Z,73.50
2023-03-07T10:03:48.119Z,73.91
2023-03-07T10:04:47.925Z,73.71
2023-03-07T10:05:47.915Z,73.60
2023-03-07T10:06:47.892Z,73.39
2023-03-07T10:07:47.885Z,73.39
2023-03-07T10:08:47.878Z,72.47
2023-03-07T10:09:47.855Z,72.36
2023-03-07T10:10:47.845Z,72.57
2023-03-07T10:11:47.918Z,73.08
2023-03-07T10:12:47.805Z,72.67
2023-03-07T10:13:47.817Z,72.88
2023-03-07T10:14:47.784Z,72.88
2023-03-07T10:15:47.842Z,72.78
2023-03-07T10:16:47.851Z,73.29
2023-03-07T10:17:47.764Z,73.05
2023-03-07T10:18:47.753Z,73.26
2023-03-07T10:19:47.724Z,73.47
2023-03-07T10:20:47.710Z,74.19
2023-03-07T10:21:47.705Z,72.95
2023-03-07T10:22:47.686Z,73.57
2023-03-07T10:23:47.694Z,72.85
2023-03-07T10:24:47.656Z,72.64
2023-03-07T10:25:47.643Z,73.05
2023-03-07T10:26:47.630Z,72.95
2023-03-07T10:27:47.634Z,73.16
2023-03-07T10:28:47.613Z,73.26
2023-03-07T10:29:47.594Z,73.77
2023-03-07T10:30:47.573Z,73.47
2023-03-07T10:31:47.587Z,73.26
2023-03-07T10:32:47.676Z,72.85
2023-03-07T10:33:47.564Z,72.74
2023-03-07T10:34:47.519Z,73.36
2023-03-07T10:35:47.531Z,73.47
2023-03-07T10:36:49.010Z,74.08
2023-03-07T10:37:47.481Z,74.57
2023-03-07T10:38:47.480Z,73.74
2023-03-07T10:39:47.474Z,74.36
2023-03-07T10:40:47.446Z,74.98
2023-03-07T10:41:47.459Z,75.29
2023-03-07T10:42:47.406Z,74.15
2023-03-07T10:43:47.395Z,74.15
2023-03-07T10:44:47.409Z,73.50
2023-03-07T10:45:47.402Z,72.88
2023-03-07T10:46:55.929Z,72.16
2023-03-07T10:47:48.352Z,72.06
2023-03-07T10:48:47.340Z,72.36
2023-03-07T10:49:47.416Z,71.92
2023-03-07T10:50:47.306Z,71.41
2023-03-07T10:51:47.293Z,70.99
2023-03-07T10:52:47.259Z,71.71
2023-03-07T10:53:47.238Z,71.81
2023-03-07T10:54:47.257Z,71.41
2023-03-07T10:55:47.248Z,70.99
2023-03-07T10:56:47.215Z,70.86
2023-03-07T10:57:47.206Z,70.37
2023-03-07T10:58:47.196Z,70.86
2023-03-07T10:59:47.201Z,70.65
2023-03-07T11:00:47.167Z,70.86
2023-03-07T11:01:47.195Z,70.34
2023-03-07T11:02:47.138Z,69.51
2023-03-07T11:03:53.562Z,69.41
2023-03-07T11:04:48.184Z,69.31
2023-03-07T11:05:47.097Z,69.20
2023-03-07T11:06:47.074Z,69.72
2023-03-07T11:07:47.072Z,68.90
2023-03-07T11:08:47.052Z,69.10
2023-03-07T11:09:47.057Z,68.79
2023-03-07T11:10:47.026Z,69.00
2023-03-07T11:11:47.014Z,69.72
2023-03-07T11:12:47.004Z,69.62
2023-03-07T11:13:46.999Z,69.41
2023-03-07T11:14:47.013Z,69.82
2023-03-07T11:15:47.033Z,70.44
2023-03-07T11:16:47.025Z,69.20
2023-03-07T11:17:46.934Z,68.69
2023-03-07T11:18:46.923Z,69.41
2023-03-07T11:19:46.943Z,69.10
2023-03-07T11:20:46.955Z,69.31
2023-03-07T11:21:46.873Z,69.20
2023-03-07T11:22:46.912Z,69.62
2023-03-07T11:23:46.892Z,69.41
2023-03-07T11:24:46.835Z,69.51
2023-03-07T11:25:46.988Z,68.79
2023-03-07T11:26:46.912Z,69.10
2023-03-07T11:27:46.831Z,69.41
2023-03-07T11:28:46.863Z,68.90
2023-03-07T11:29:47.082Z,68.17
2023-03-07T11:30:47.502Z,68.17
2023-03-07T11:31:46.743Z,67.76
2023-03-07T11:32:46.811Z,68.35
2023-03-07T11:33:58.575Z,67.55
2023-03-07T11:34:47.714Z,67.35
2023-03-07T11:35:46.696Z,67.45
2023-03-07T11:36:46.671Z,67.97
2023-03-07T11:37:46.665Z,68.07
2023-03-07T11:38:46.644Z,68.38
2023-03-07T11:39:46.654Z,68.90
2023-03-07T11:40:46.624Z,68.17
2023-03-07T11:41:46.603Z,68.38
2023-03-07T11:42:46.600Z,67.66
2023-03-07T11:43:46.575Z,67.76
2023-03-07T11:44:46.589Z,67.66
2023-03-07T11:45:46.595Z,67.76
2023-03-07T11:46:46.593Z,68.48
2023-03-07T11:47:46.535Z,68.79
2023-03-07T11:48:46.517Z,68.17
2023-03-07T11:49:46.526Z,67.97
2023-03-07T11:50:46.486Z,67.86
2023-03-07T11:51:46.476Z,67.24
2023-03-07T11:52:46.476Z,67.76
2023-03-07T11:53:46.454Z,67.66
2023-03-07T11:54:46.455Z,67.24
2023-03-07T11:55:46.416Z,67.14
2023-03-07T11:56:46.406Z,67.14
2023-03-07T11:57:46.398Z,67.24
2023-03-07T11:58:46.408Z,67.45
2023-03-07T11:59:46.387Z,67.55
2023-03-07T12:00:46.358Z,67.24
2023-03-07T12:01:46.350Z,67.24
2023-03-07T12:02:46.375Z,67.63
2023-03-07T12:03:46.320Z,67.42
2023-03-07T12:04:46.310Z,67.42
2023-03-07T12:05:46.349Z,67.63
2023-03-07T12:06:46.278Z,67.21
2023-03-07T12:07:46.272Z,67.32
2023-03-07T12:08:46.268Z,68.14
2023-03-07T12:09:46.251Z,67.63
2023-03-07T12:10:46.241Z,68.14
2023-03-07T12:11:46.207Z,67.83
2023-03-07T12:12:46.202Z,67.49
2023-03-07T12:13:46.188Z,67.60
2023-03-07T12:14:46.170Z,66.87
2023-03-07T12:15:46.187Z,67.39
2023-03-07T12:16:46.140Z,67.60
2023-03-07T12:17:46.141Z,67.29
2023-03-07T12:18:46.121Z,67.70
2023-03-07T12:19:46.101Z,67.80
2023-03-07T12:20:46.113Z,66.97
2023-03-07T12:21:46.071Z,66.36
2023-03-07T12:22:46.050Z,66.87
2023-03-07T12:23:46.053Z,67.11
2023-03-07T12:24:46.059Z,67.83
2023-03-07T12:25:46.051Z,67.42
2023-03-07T12:26:46.008Z,67.11
2023-03-07T12:27:46.003Z,67.42
2023-03-07T12:28:45.980Z,67.11
2023-03-07T12:29:45.970Z,66.49
2023-03-07T12:30:45.972Z,66.80
2023-03-07T12:31:46.065Z,67.00
2023-03-07T12:32:46.041Z,66.83
2023-03-07T12:33:45.933Z,67.03
2023-03-07T12:34:45.904Z,67.03
2023-03-07T12:35:45.952Z,66.31
2023-03-07T12:36:45.882Z,66.94
2023-03-07T12:37:45.865Z,66.73
2023-03-07T12:38:45.853Z,66.94
2023-03-07T12:39:45.984Z,67.03
2023-03-07T12:40:45.845Z,67.66
2023-03-07T12:41:45.815Z,67.45
2023-03-07T12:42:45.793Z,67.45
2023-03-07T12:43:45.792Z,67.14
2023-03-07T12:44:45.863Z,66.73
2023-03-07T12:45:45.953Z,67.03
2023-03-07T12:46:45.743Z,67.42
2023-03-07T12:47:45.713Z,68.24
2023-03-07T12:48:45.704Z,67.00
2023-03-07T12:49:49.982Z,66.91
2023-03-07T12:50:45.708Z,67.11
2023-03-07T12:51:45.693Z,67.32
2023-03-07T12:52:45.686Z,67.21
2023-03-07T12:53:45.675Z,67.21